Terminal Aerodrome Forecast
Issued by NWS Cleveland, OH

Home | Current Version | Previous Version | Text Only | Print | Product List | Glossary Off
Versions: 1 2 3 4 5 6 7 8 9 10 11 12 13 14 15 16 17

000
FTUS41 KCLE 030826 AAB
TAFYNG
TAF AMD
KYNG 030826Z 0308/0406 02007KT 1SM BR OVC012
      TEMPO 0308/0312 1/4SM FG VV002
     FM031200 02007KT 2SM BR OVC012
     FM031500 33005KT P6SM BKN060
     FM040200 VRB03KT P6SM BKN100
     FM040500 VRB03KT P6SM BKN250=

USA.gov is the U.S. government's official web portal to all federal, state and local government web resources and services.